^^
Station Historical Data
Daily Summary for January 9, 2017 Units:  English    Metric   Both
« Previous Day
Next Day »
Daily Weekly Monthly Yearly Custom
  High: Low: Average:
Temperature: 21.7 °F 10.1 °F 16.1 °F
Dew Point: 10.3 °F 2.8 °F 6 °F
Humidity: 75% 52% 64%
Wind Speed: 7.0mph 0.0mph 1mph
Wind Gust: 17.0mph - -
Wind- - SW
Pressure: 30.78 in 30.62 in -
Precipitation: 0.00 in    
Historical Graphs
 
 
Tabular Data for January 9, 2017
Time Temperature Dew Point Pressure Wind Wind Speed Wind Gust Humidity Rainfall Rate (Hourly) Conditions
00:00 14.9 °F 4.2 °F 30.62 in WSW 1.0 mph 10.0 mph 62% 0.00 in CLR
00:10 14.7 °F 4.0 °F 30.63 in North 2.0 mph 10.0 mph 62% 0.00 in FEW
00:20 14.6 °F 3.9 °F 30.62 in NW 1.0 mph 6.0 mph 62% 0.00 in FEW
00:30 14.4 °F 3.8 °F 30.63 in Calm   5.0 mph 62% 0.00 in FEW
00:40 14.2 °F 3.6 °F 30.63 in Calm   3.0 mph 62% 0.00 in FEW
00:50 14.1 °F 3.8 °F 30.62 in Calm   4.0 mph 63% 0.00 in FEW
01:00 13.9 °F 3.3 °F 30.62 in Calm   6.0 mph 62% 0.00 in FEW
01:10 14.0 °F 3.7 °F 30.64 in NE 2.0 mph 12.0 mph 63% 0.00 in CLR
01:20 14.0 °F 3.3 °F 30.64 in WNW 1.0 mph 8.0 mph 62% 0.00 in CLR
01:30 13.8 °F 3.2 °F 30.64 in Calm   5.0 mph 62% 0.00 in CLR
01:40 13.7 °F 3.1 °F 30.65 in WSW 1.0 mph 6.0 mph 62% 0.00 in CLR
01:50 13.6 °F 3.0 °F 30.65 in WSW 1.0 mph 5.0 mph 62% 0.00 in CLR
02:00 13.4 °F 3.1 °F 30.66 in Calm   5.0 mph 63% 0.00 in CLR
02:10 13.4 °F 2.8 °F 30.66 in West 1.0 mph 12.0 mph 62% 0.00 in CLR
02:20 13.4 °F 3.1 °F 30.67 in Calm   5.0 mph 63% 0.00 in CLR
02:30 13.2 °F 3.3 °F 30.67 in Calm   4.0 mph 64% 0.00 in CLR
02:40 13.1 °F 3.2 °F 30.67 in WSW 1.0 mph 8.0 mph 64% 0.00 in CLR
02:50 13.0 °F 3.1 °F 30.67 in SSW 1.0 mph 6.0 mph 64% 0.00 in CLR
03:00 12.9 °F 3.3 °F 30.67 in WSW 1.0 mph 5.0 mph 65% 0.00 in CLR
03:10 12.8 °F 3.2 °F 30.66 in SSW 1.0 mph 5.0 mph 65% 0.00 in CLR
03:20 12.8 °F 3.2 °F 30.67 in Calm   9.0 mph 65% 0.00 in CLR
03:30 12.9 °F 3.3 °F 30.67 in Calm   8.0 mph 65% 0.00 in CLR
03:40 12.8 °F 3.3 °F 30.67 in WNW 1.0 mph 7.0 mph 65% 0.00 in CLR
03:50 12.7 °F 3.1 °F 30.67 in Calm   6.0 mph 65% 0.00 in CLR
04:00 12.6 °F 3.1 °F 30.68 in WSW 1.0 mph 10.0 mph 65% 0.00 in CLR
04:10 12.5 °F 3.3 °F 30.69 in Calm   6.0 mph 66% 0.00 in CLR
04:20 12.5 °F 3.3 °F 30.69 in WSW 1.0 mph 8.0 mph 66% 0.00 in CLR
04:30 12.5 °F 3.6 °F 30.69 in WSW 1.0 mph 5.0 mph 67% 0.00 in CLR
04:40 12.5 °F 3.3 °F 30.70 in Calm   10.0 mph 66% 0.00 in CLR
04:50 12.4 °F 3.2 °F 30.70 in Calm   5.0 mph 66% 0.00 in CLR
05:00 12.1 °F 3.6 °F 30.70 in Calm   2.0 mph 68% 0.00 in CLR
05:10 12.0 °F 3.4 °F 30.70 in Calm   2.0 mph 68% 0.00 in CLR
05:20 11.9 °F 3.7 °F 30.70 in Calm   1.0 mph 69% 0.00 in CLR
05:30 11.8 °F 3.9 °F 30.71 in Calm   2.0 mph 70% 0.00 in CLR
05:40 11.6 °F 3.7 °F 30.71 in Calm   1.0 mph 70% 0.00 in CLR
05:50 11.3 °F 3.4 °F 30.71 in Calm   1.0 mph 70% 0.00 in CLR
06:00 11.2 °F 3.6 °F 30.70 in Calm   4.0 mph 71% 0.00 in CLR
06:10 11.2 °F 3.3 °F 30.70 in Calm   1.0 mph 70% 0.00 in CLR
06:20 10.7 °F 3.1 °F 30.70 in Calm     71% 0.00 in CLR
06:30 10.7 °F 3.4 °F 30.70 in Calm   1.0 mph 72% 0.00 in CLR
06:40 10.9 °F 3.6 °F 30.69 in Calm     72% 0.00 in CLR
06:50 10.5 °F 3.3 °F 30.70 in Calm   1.0 mph 72% 0.00 in CLR
07:10 10.2 °F 3.8 °F 30.70 in Calm   1.0 mph 75% 0.00 in CLR
07:20 10.1 °F 3.5 °F 30.70 in Calm   3.0 mph 74% 0.00 in CLR
07:30 10.1 °F 3.5 °F 30.71 in Calm   2.0 mph 74% 0.00 in CLR
07:40 10.1 °F 3.5 °F 30.71 in Calm   1.0 mph 74% 0.00 in CLR
07:50 10.3 °F 3.9 °F 30.72 in Calm   1.0 mph 75% 0.00 in CLR
08:00 10.7 °F 4.0 °F 30.72 in Calm   4.0 mph 74% 0.00 in CLR
08:10 11.3 °F 4.6 °F 30.73 in Calm   3.0 mph 74% 0.00 in CLR
08:20 11.6 °F 4.6 °F 30.74 in Calm   5.0 mph 73% 0.00 in CLR
08:30 11.8 °F 4.5 °F 30.74 in SW 3.0 mph 6.0 mph 72% 0.00 in CLR
08:40 11.9 °F 4.3 °F 30.75 in Calm   5.0 mph 71% 0.00 in CLR
08:50 12.0 °F 4.4 °F 30.75 in WSW 2.0 mph 6.0 mph 71% 0.00 in CLR
09:00 12.4 °F 5.0 °F 30.76 in SSW 1.0 mph 5.0 mph 72% 0.00 in CLR
09:10 12.6 °F 5.3 °F 30.76 in Calm   5.0 mph 72% 0.00 in CLR
09:20 13.0 °F 5.4 °F 30.77 in SW 2.0 mph 6.0 mph 71% 0.00 in CLR
09:30 13.6 °F 5.7 °F 30.78 in SW 1.0 mph 4.0 mph 70% 0.00 in CLR
09:40 14.0 °F 5.4 °F 30.78 in WSW 1.0 mph 5.0 mph 68% 0.00 in CLR
09:50 14.3 °F 5.3 °F 30.78 in WSW 2.0 mph 6.0 mph 67% 0.00 in CLR
10:00 14.9 °F 5.6 °F 30.78 in SW 3.0 mph 7.0 mph 66% 0.00 in CLR
10:10 15.3 °F 6.0 °F 30.78 in South 1.0 mph 6.0 mph 66% 0.00 in CLR
10:20 15.8 °F 5.8 °F 30.78 in Calm   4.0 mph 64% 0.00 in CLR
10:30 16.0 °F 5.6 °F 30.77 in West 1.0 mph 6.0 mph 63% 0.00 in CLR
10:40 16.6 °F 5.8 °F 30.77 in WSW 2.0 mph 5.0 mph 62% 0.00 in CLR
10:50 16.6 °F 6.2 °F 30.77 in SW 1.0 mph 4.0 mph 63% 0.00 in CLR
11:00 16.6 °F 5.8 °F 30.76 in Calm   3.0 mph 62% 0.00 in CLR
11:10 16.6 °F 5.5 °F 30.75 in West 1.0 mph 5.0 mph 61% 0.00 in CLR
11:20 16.7 °F 5.2 °F 30.75 in WSW 2.0 mph 4.0 mph 60% 0.00 in CLR
11:30 16.8 °F 5.7 °F 30.74 in SW 1.0 mph 4.0 mph 61% 0.00 in CLR
11:40 17.0 °F 6.3 °F 30.74 in Calm   2.0 mph 62% 0.00 in CLR
11:50 17.1 °F 6.3 °F 30.73 in Calm   3.0 mph 62% 0.00 in CLR
12:00 17.7 °F 6.5 °F 30.73 in SW 1.0 mph 4.0 mph 61% 0.00 in CLR
12:10 17.7 °F 6.5 °F 30.72 in Calm   3.0 mph 61% 0.00 in CLR
12:20 17.9 °F 6.3 °F 30.72 in Calm   3.0 mph 60% 0.00 in CLR
12:30 18.0 °F 6.1 °F 30.72 in Calm   4.0 mph 59% 0.00 in CLR
12:40 18.1 °F 6.5 °F 30.72 in Calm   5.0 mph 60% 0.00 in CLR
12:50 18.3 °F 6.4 °F 30.72 in SSW 2.0 mph 5.0 mph 59% 0.00 in CLR
13:00 18.4 °F 6.5 °F 30.72 in Calm   4.0 mph 59% 0.00 in CLR
13:10 18.6 °F 6.6 °F 30.72 in WSW 3.0 mph 6.0 mph 59% 0.00 in CLR
13:20 18.7 °F 6.7 °F 30.71 in Calm   6.0 mph 59% 0.00 in CLR
13:30 19.4 °F 7.4 °F 30.71 in SSW 1.0 mph 5.0 mph 59% 0.00 in CLR
13:40 19.4 °F 7.0 °F 30.71 in WSW 1.0 mph 5.0 mph 58% 0.00 in CLR
13:50 19.9 °F 7.5 °F 30.71 in SW 2.0 mph 6.0 mph 58% 0.00 in CLR
14:00 19.9 °F 7.1 °F 30.71 in SW 2.0 mph 3.0 mph 57% 0.00 in CLR
14:10 20.2 °F 7.4 °F 30.71 in SSW 1.0 mph 4.0 mph 57% 0.00 in FEW
14:20 20.2 °F 7.0 °F 30.70 in SW 2.0 mph 9.0 mph 56% 0.00 in FEW
14:30 19.9 °F 7.1 °F 30.70 in SW 1.0 mph 4.0 mph 57% 0.00 in FEW
14:40 20.0 °F 7.6 °F 30.70 in South 1.0 mph 4.0 mph 58% 0.00 in FEW
14:50 20.3 °F 7.4 °F 30.70 in SW 1.0 mph 5.0 mph 57% 0.00 in FEW
15:00 20.4 °F 7.2 °F 30.69 in WSW 2.0 mph 5.0 mph 56% 0.00 in FEW
15:10 20.5 °F 6.9 °F 30.69 in SSW 1.0 mph 6.0 mph 55% 0.00 in CLR
15:20 21.0 °F 6.9 °F 30.69 in SW 1.0 mph 6.0 mph 54% 0.00 in CLR
15:30 21.3 °F 7.2 °F 30.68 in SSW 1.0 mph 7.0 mph 54% 0.00 in CLR
15:40 21.7 °F 7.2 °F 30.69 in SW 1.0 mph 4.0 mph 53% 0.00 in CLR
15:50 21.2 °F 6.3 °F 30.69 in SW 1.0 mph 6.0 mph 52% 0.00 in CLR
16:00 20.9 °F 6.9 °F 30.69 in SSW 1.0 mph 5.0 mph 54% 0.00 in CLR
16:10 20.9 °F 7.2 °F 30.69 in Calm   4.0 mph 55% 0.00 in CLR
16:20 20.6 °F 7.0 °F 30.69 in SW 2.0 mph 5.0 mph 55% 0.00 in CLR
16:30 20.1 °F 7.3 °F 30.69 in SSW 1.0 mph 3.0 mph 57% 0.00 in CLR
16:40 19.7 °F 7.2 °F 30.69 in Calm   5.0 mph 58% 0.00 in CLR
16:50 19.2 °F 7.2 °F 30.68 in Calm   3.0 mph 59% 0.00 in CLR
17:00 18.9 °F 7.3 °F 30.68 in Calm   2.0 mph 60% 0.00 in CLR
17:10 18.5 °F 7.3 °F 30.68 in Calm   1.0 mph 61% 0.00 in CLR
17:20 18.1 °F 7.3 °F 30.69 in Calm   1.0 mph 62% 0.00 in CLR
17:30 17.5 °F 8.1 °F 30.69 in Calm   1.0 mph 66% 0.00 in CLR
17:40 17.8 °F 7.7 °F 30.70 in Calm   2.0 mph 64% 0.00 in CLR
17:50 17.5 °F 8.4 °F 30.70 in Calm   3.0 mph 67% 0.00 in CLR
18:00 17.6 °F 8.5 °F 30.70 in SW 2.0 mph 4.0 mph 67% 0.00 in CLR
18:10 18.0 °F 8.5 °F 30.70 in Calm   4.0 mph 66% 0.00 in SCT
18:20 17.8 °F 8.7 °F 30.70 in SSW 1.0 mph 2.0 mph 67% 0.00 in SCT
18:30 18.1 °F 9.0 °F 30.69 in South 1.0 mph 5.0 mph 67% 0.00 in SCT
18:40 18.2 °F 9.0 °F 30.70 in South 1.0 mph 5.0 mph 67% 0.00 in SCT
18:50 18.2 °F 9.1 °F 30.70 in Calm   5.0 mph 67% 0.00 in SCT
19:10 18.5 °F 9.0 °F 30.70 in SSW 2.0 mph 6.0 mph 66% 0.00 in FEW
19:20 18.6 °F 8.8 °F 30.69 in South 3.0 mph 6.0 mph 65% 0.00 in FEW
19:30 18.9 °F 9.0 °F 30.69 in SSW 2.0 mph 6.0 mph 65% 0.00 in FEW
19:40 19.1 °F 9.3 °F 30.69 in SSW 3.0 mph 6.0 mph 65% 0.00 in FEW
19:50 19.4 °F 9.6 °F 30.69 in Calm   5.0 mph 65% 0.00 in FEW
20:00 19.6 °F 9.7 °F 30.69 in Calm   3.0 mph 65% 0.00 in FEW
20:10 19.6 °F 9.7 °F 30.69 in Calm   3.0 mph 65% 0.00 in BKN
20:20 19.6 °F 9.7 °F 30.69 in SSW 1.0 mph 3.0 mph 65% 0.00 in BKN
20:30 19.6 °F 10.1 °F 30.69 in South 1.0 mph 6.0 mph 66% 0.00 in BKN
20:40 19.5 °F 10.3 °F 30.69 in SSW 1.0 mph 8.0 mph 67% 0.00 in BKN
20:50 19.4 °F 9.9 °F 30.69 in SW 1.0 mph 6.0 mph 66% 0.00 in BKN
21:00 19.2 °F 10.0 °F 30.69 in South 2.0 mph 6.0 mph 67% 0.00 in BKN
21:10 19.2 °F 10.0 °F 30.69 in SSW 1.0 mph 7.0 mph 67% 0.00 in FEW
21:20 19.3 °F 9.8 °F 30.69 in SSW 2.0 mph 9.0 mph 66% 0.00 in FEW
21:30 19.3 °F 9.1 °F 30.70 in South 6.0 mph 12.0 mph 64% 0.00 in FEW
21:40 19.4 °F 8.5 °F 30.70 in SW 5.0 mph 17.0 mph 62% 0.00 in FEW
21:50 19.3 °F 8.4 °F 30.70 in SSW 3.0 mph 12.0 mph 62% 0.00 in FEW
22:00 19.3 °F 8.4 °F 30.70 in SSW 7.0 mph 16.0 mph 62% 0.00 in FEW
22:10 19.2 °F 8.3 °F 30.70 in SSW 6.0 mph 13.0 mph 62% 0.00 in CLR
22:20 19.0 °F 8.5 °F 30.70 in SSW 3.0 mph 13.0 mph 63% 0.00 in CLR
22:30 18.9 °F 8.4 °F 30.70 in SSW 2.0 mph 10.0 mph 63% 0.00 in CLR
22:40 18.9 °F 8.4 °F 30.70 in South 3.0 mph 10.0 mph 63% 0.00 in CLR
22:50 18.7 °F 8.6 °F 30.71 in SSW 3.0 mph 10.0 mph 64% 0.00 in CLR
23:00 18.5 °F 8.4 °F 30.70 in SSW 3.0 mph 9.0 mph 64% 0.00 in CLR
23:10 18.4 °F 8.3 °F 30.70 in SSW 3.0 mph 8.0 mph 64% 0.00 in CLR
23:20 18.4 °F 8.6 °F 30.69 in South 1.0 mph 7.0 mph 65% 0.00 in CLR
23:30 18.1 °F 8.3 °F 30.69 in SW 1.0 mph 5.0 mph 65% 0.00 in CLR
23:40 17.9 °F 8.5 °F 30.69 in Calm   4.0 mph 66% 0.00 in CLR
23:50 17.8 °F 9.0 °F 30.69 in SSW 1.0 mph 4.0 mph 68% 0.00 in CLR
TarryTown NY Weather
Compliments of Weather Underground - 1.75 mb